createdAt,value
2023-02-25T00:03:01.932Z,99314.80
2023-02-25T00:05:55.879Z,99314.19
2023-02-25T00:09:06.386Z,99312.63
2023-02-25T00:11:58.732Z,99309.23
2023-02-25T00:14:28.850Z,99307.35
2023-02-25T00:17:00.016Z,99307.17
2023-02-25T00:19:28.516Z,99301.12
2023-02-25T00:22:20.370Z,99299.08
2023-02-25T00:24:52.199Z,99293.81
2023-02-25T00:27:40.217Z,99292.86
2023-02-25T00:30:12.407Z,99292.15
2023-02-25T00:32:43.428Z,99292.31
2023-02-25T00:35:14.577Z,99287.34
2023-02-25T00:38:14.796Z,99281.10
2023-02-25T00:41:04.109Z,99277.95
2023-02-25T00:43:54.988Z,99282.13
2023-02-25T00:46:27.093Z,99272.71
2023-02-25T00:49:05.266Z,99271.55
2023-02-25T00:51:44.158Z,99270.41
2023-02-25T00:54:38.406Z,99269.47
2023-02-25T00:57:12.353Z,99262.98
2023-02-25T00:59:44.885Z,99259.02
2023-02-25T01:02:38.270Z,99257.14
2023-02-25T01:05:08.850Z,99252.33
2023-02-25T01:07:58.708Z,99242.83
2023-02-25T01:10:49.208Z,99235.77
2023-02-25T01:13:42.059Z,99231.67
2023-02-25T01:16:12.740Z,99231.73
2023-02-25T01:19:05.126Z,99229.46
2023-02-25T01:21:57.288Z,99219.10
2023-02-25T01:24:26.613Z,99210.59
2023-02-25T01:27:06.939Z,99211.86
2023-02-25T01:29:47.524Z,99206.19
2023-02-25T01:32:16.763Z,99201.72
2023-02-25T01:35:14.607Z,99194.91
2023-02-25T01:38:04.958Z,99200.23
2023-02-25T01:40:53.308Z,99187.86
2023-02-25T01:43:23.949Z,99189.73
2023-02-25T01:46:27.642Z,99188.45
2023-02-25T01:49:17.894Z,99180.94
2023-02-25T01:52:14.292Z,99174.95
2023-02-25T01:55:07.022Z,99166.96
2023-02-25T01:57:55.269Z,99160.54
2023-02-25T02:00:32.618Z,99159.90
2023-02-25T02:03:20.918Z,99156.97
2023-02-25T02:06:09.012Z,99153.45
2023-02-25T02:08:40.462Z,99146.49
2023-02-25T02:11:25.908Z,99144.63
2023-02-25T02:14:03.130Z,99137.59
2023-02-25T02:16:40.401Z,99138.09
2023-02-25T02:19:32.912Z,99132.11
2023-02-25T02:22:04.600Z,99131.69
2023-02-25T02:24:37.526Z,99132.88
2023-02-25T02:27:13.835Z,99134.22
2023-02-25T02:30:21.184Z,99122.69
2023-02-25T02:33:09.556Z,99124.06
2023-02-25T02:35:38.704Z,99122.75
2023-02-25T02:38:07.787Z,99115.32
2023-02-25T02:40:39.362Z,99109.73
2023-02-25T02:43:08.941Z,99110.30
2023-02-25T02:46:01.618Z,99102.32
2023-02-25T02:48:50.805Z,99100.96
2023-02-25T02:51:20.787Z,99097.89
2023-02-25T02:53:50.017Z,99096.38
2023-02-25T02:56:42.029Z,99097.03
2023-02-25T02:59:50.060Z,99094.45
2023-02-25T03:02:39.057Z,99088.23
2023-02-25T03:05:08.932Z,99088.19
2023-02-25T03:08:05.289Z,99093.41
2023-02-25T03:10:34.440Z,99086.72
2023-02-25T03:13:03.684Z,99077.91
2023-02-25T03:15:36.364Z,99079.53
2023-02-25T03:18:04.824Z,99072.83
2023-02-25T03:20:58.689Z,99063.20
2023-02-25T03:23:49.716Z,99066.67
2023-02-25T03:26:22.685Z,99066.02
2023-02-25T03:29:02.768Z,99064.87
2023-02-25T03:31:31.258Z,99059.70
2023-02-25T03:34:15.903Z,99053.98
2023-02-25T03:36:52.925Z,99051.39
2023-02-25T03:39:31.653Z,99049.16
2023-02-25T03:42:01.923Z,99040.11
2023-02-25T03:44:30.799Z,99035.90
2023-02-25T03:47:02.765Z,99032.95
2023-02-25T03:49:32.009Z,99026.53
2023-02-25T03:52:22.797Z,99027.69
2023-02-25T03:55:13.531Z,99021.06
2023-02-25T03:57:45.584Z,99016.29
2023-02-25T04:00:15.143Z,99007.91
2023-02-25T04:02:45.391Z,98999.98
2023-02-25T04:05:31.203Z,99005.88
2023-02-25T04:08:03.904Z,99003.85
2023-02-25T04:10:37.859Z,98995.85
2023-02-25T04:13:46.153Z,98993.63
2023-02-25T04:16:35.140Z,98989.81
2023-02-25T04:19:15.793Z,98986.77
2023-02-25T04:22:24.782Z,98982.88
2023-02-25T04:25:01.543Z,98976.25
2023-02-25T04:27:49.626Z,98975.48
2023-02-25T04:30:40.683Z,98971.52
2023-02-25T04:33:13.294Z,98970.95
2023-02-25T04:35:46.351Z,98971.14
2023-02-25T04:38:18.593Z,98969.66
2023-02-25T04:41:26.702Z,98964.52
2023-02-25T04:43:55.928Z,98959.94
2023-02-25T04:46:26.496Z,98954.27
2023-02-25T04:49:04.645Z,98958.36
2023-02-25T04:51:34.208Z,98952.98
2023-02-25T04:54:26.835Z,98947.20
2023-02-25T04:57:30.605Z,98948.48
2023-02-25T05:00:03.180Z,98948.07
2023-02-25T05:02:33.118Z,98949.88
2023-02-25T05:05:19.522Z,98942.79
2023-02-25T05:08:27.693Z,98945.23
2023-02-25T05:11:05.656Z,98944.13
2023-02-25T05:13:36.685Z,98939.36
2023-02-25T05:16:13.571Z,98943.42
2023-02-25T05:18:46.005Z,98942.00
2023-02-25T05:21:50.094Z,98938.09
2023-02-25T05:24:20.372Z,98942.45
2023-02-25T05:27:09.309Z,98937.52
2023-02-25T05:29:49.064Z,98931.11
2023-02-25T05:32:35.280Z,98934.46
2023-02-25T05:35:04.654Z,98928.77
2023-02-25T05:37:36.659Z,98929.64
2023-02-25T05:40:23.136Z,98925.08
2023-02-25T05:42:57.265Z,98923.27
2023-02-25T05:46:06.402Z,98931.61
2023-02-25T05:48:51.255Z,98928.95
2023-02-25T05:51:39.945Z,98946.37
2023-02-25T05:54:28.133Z,98938.02
2023-02-25T05:56:57.941Z,98929.04
2023-02-25T05:59:26.556Z,98925.49
2023-02-25T06:02:04.557Z,98915.31
2023-02-25T06:04:37.624Z,98907.55
2023-02-25T06:07:21.120Z,98907.89
2023-02-25T06:10:29.420Z,98906.42
2023-02-25T06:13:19.456Z,98908.96
2023-02-25T06:16:16.740Z,98913.63
2023-02-25T06:18:49.522Z,98905.90
2023-02-25T06:21:17.955Z,98910.17
2023-02-25T06:23:58.232Z,98911.95
2023-02-25T06:26:30.603Z,98909.68
2023-02-25T06:28:59.645Z,98906.49
2023-02-25T06:31:43.429Z,98906.45
2023-02-25T06:34:13.601Z,98901.50
2023-02-25T06:36:50.943Z,98909.22
2023-02-25T06:39:24.229Z,98900.11
2023-02-25T06:41:52.852Z,98907.32
2023-02-25T06:44:21.750Z,98908.95
2023-02-25T06:47:13.631Z,98906.91
2023-02-25T06:50:07.560Z,98908.95
2023-02-25T06:52:56.114Z,98915.67
2023-02-25T06:55:46.083Z,98909.81
2023-02-25T06:58:15.772Z,98911.95
2023-02-25T07:00:44.972Z,98907.04
2023-02-25T07:03:29.858Z,98914.80
2023-02-25T07:05:58.818Z,98911.15
2023-02-25T07:08:28.885Z,98916.50
2023-02-25T07:10:59.305Z,98916.77
2023-02-25T07:13:27.990Z,98915.77
2023-02-25T07:16:00.811Z,98914.27
2023-02-25T07:18:30.053Z,98912.22
2023-02-25T07:21:03.030Z,98903.90
2023-02-25T07:23:52.181Z,98903.52
2023-02-25T07:26:41.944Z,98906.40
2023-02-25T07:29:11.467Z,98895.88
2023-02-25T07:31:50.359Z,98903.20
2023-02-25T07:34:21.047Z,98898.89
2023-02-25T07:36:49.456Z,98901.02
2023-02-25T07:40:01.033Z,98906.96
2023-02-25T07:42:35.205Z,98914.64
2023-02-25T07:45:27.101Z,98915.32
2023-02-25T07:47:56.972Z,98912.13
2023-02-25T07:50:27.579Z,98910.56
2023-02-25T07:53:21.925Z,98916.98
2023-02-25T07:56:00.137Z,98918.60
2023-02-25T07:59:09.041Z,98931.35
2023-02-25T08:02:17.559Z,98925.23
2023-02-25T08:05:14.261Z,98934.25
2023-02-25T08:08:10.088Z,98941.81
2023-02-25T08:10:44.600Z,98938.37
2023-02-25T08:13:33.289Z,98934.61
2023-02-25T08:16:04.450Z,98930.30
2023-02-25T08:19:08.611Z,98938.30
2023-02-25T08:21:58.336Z,98939.06
2023-02-25T08:24:34.804Z,98953.70
2023-02-25T08:27:27.419Z,98958.80
2023-02-25T08:30:21.227Z,98975.23
2023-02-25T08:32:56.215Z,98958.70
2023-02-25T08:35:50.243Z,98948.64
2023-02-25T08:38:18.891Z,98944.91
2023-02-25T08:41:23.672Z,98955.19
2023-02-25T08:43:56.040Z,98960.94
2023-02-25T08:46:33.385Z,98960.98
2023-02-25T08:49:24.479Z,98953.16
2023-02-25T08:52:34.685Z,98955.19
2023-02-25T08:55:09.173Z,98943.66
2023-02-25T08:57:37.279Z,98936.96
2023-02-25T09:00:09.250Z,98933.30
2023-02-25T09:02:39.262Z,98915.91
2023-02-25T09:05:09.072Z,98906.77
2023-02-25T09:07:41.892Z,98907.60
2023-02-25T09:10:13.727Z,98893.88
2023-02-25T09:12:43.179Z,98889.39
2023-02-25T09:15:31.341Z,98888.42
2023-02-25T09:18:00.051Z,98874.83
2023-02-25T09:20:32.125Z,98879.44
2023-02-25T09:23:04.489Z,98873.03
2023-02-25T09:25:34.814Z,98879.08
2023-02-25T09:28:11.724Z,98872.16
2023-02-25T09:31:00.532Z,98881.05
2023-02-25T09:34:05.907Z,98891.81
2023-02-25T09:36:36.848Z,98894.02
2023-02-25T09:39:09.616Z,98892.45
2023-02-25T09:42:01.002Z,98894.16
2023-02-25T09:44:33.410Z,98892.25
2023-02-25T09:47:06.104Z,98884.11
2023-02-25T09:49:35.594Z,98873.92
2023-02-25T09:52:40.625Z,98902.02
2023-02-25T09:55:09.519Z,98906.98
2023-02-25T09:57:40.267Z,98919.73
2023-02-25T10:00:14.195Z,98926.20
2023-02-25T10:02:44.824Z,98924.41
2023-02-25T10:05:34.335Z,98925.70
2023-02-25T10:08:03.572Z,98937.58
2023-02-25T10:10:32.567Z,99002.74
2023-02-25T10:13:22.658Z,99055.63
2023-02-25T10:16:50.643Z,99033.67
2023-02-25T10:20:18.536Z,99046.11
2023-02-25T10:23:46.448Z,99036.48
2023-02-25T10:26:55.485Z,99041.93
2023-02-25T10:30:23.460Z,99052.36
2023-02-25T10:33:11.665Z,99057.01
2023-02-25T10:36:00.089Z,99058.04
2023-02-25T10:39:09.025Z,99052.41
2023-02-25T10:42:19.388Z,99042.17
2023-02-25T10:45:47.462Z,99039.09
2023-02-25T10:49:16.403Z,99033.72
2023-02-25T10:52:43.925Z,99025.61
2023-02-25T10:56:12.012Z,99020.97
2023-02-25T10:59:40.048Z,99014.35
2023-02-25T11:03:08.040Z,99032.21
2023-02-25T11:06:36.118Z,99038.48
2023-02-25T11:09:43.994Z,99038.30
2023-02-25T11:13:12.067Z,99044.16
2023-02-25T11:16:40.323Z,99057.18
2023-02-25T11:20:08.101Z,99060.98
2023-02-25T11:23:35.963Z,99070.36
2023-02-25T11:27:03.977Z,99066.89
2023-02-25T11:30:31.753Z,99067.89
2023-02-25T11:34:00.004Z,99074.52
2023-02-25T11:37:27.813Z,99104.84
2023-02-25T11:40:55.758Z,99121.42
2023-02-25T11:44:23.793Z,99112.84
2023-02-25T11:47:51.674Z,99117.05
2023-02-25T11:51:19.850Z,99121.06
2023-02-25T11:54:47.776Z,99122.20
2023-02-25T11:57:55.717Z,99128.91
2023-02-25T12:01:23.582Z,99145.58
2023-02-25T12:04:51.417Z,99157.02
2023-02-25T12:07:41.664Z,99161.14
2023-02-25T12:11:08.486Z,99180.38
2023-02-25T12:14:36.495Z,99186.10
2023-02-25T12:21:13.332Z,99189.89
2023-02-25T12:24:41.162Z,99197.22
2023-02-25T12:28:09.007Z,99186.64
2023-02-25T12:31:17.337Z,99195.38
2023-02-25T12:34:45.196Z,99202.52
2023-02-25T12:38:13.059Z,99199.05
2023-02-25T12:41:21.167Z,99198.34
2023-02-25T12:44:49.128Z,99202.09
2023-02-25T12:48:17.078Z,99205.76
2023-02-25T12:51:45.039Z,99210.06
2023-02-25T12:55:13.011Z,99206.27
2023-02-25T12:58:40.845Z,99202.70
2023-02-25T13:02:08.542Z,99195.33
2023-02-25T13:05:36.293Z,99199.83
2023-02-25T13:09:04.357Z,99202.89
2023-02-25T13:12:32.266Z,99200.73
2023-02-25T13:15:59.911Z,99201.44
2023-02-25T13:19:08.635Z,99201.27
2023-02-25T13:22:36.406Z,99198.16
2023-02-25T13:26:04.322Z,99190.23
2023-02-25T13:29:13.312Z,99185.30
2023-02-25T13:32:23.397Z,99174.09
2023-02-25T13:35:51.358Z,99189.76
2023-02-25T13:39:19.492Z,99193.24
2023-02-25T13:42:56.024Z,99201.41
2023-02-25T13:46:24.194Z,99204.73
2023-02-25T13:49:52.823Z,99199.19
2023-02-25T13:53:20.786Z,99217.12
2023-02-25T13:56:48.719Z,99209.59
2023-02-25T14:00:16.621Z,99196.27
2023-02-25T14:03:44.583Z,99197.27
2023-02-25T14:07:12.595Z,99211.94
2023-02-25T14:10:40.420Z,99212.52
2023-02-25T14:14:08.305Z,99221.02
2023-02-25T14:17:16.692Z,99221.91
2023-02-25T14:20:44.599Z,99232.46
2023-02-25T14:24:12.411Z,99237.22
2023-02-25T14:27:20.444Z,99244.90
2023-02-25T14:30:29.534Z,99243.37
2023-02-25T14:33:37.686Z,99239.91
2023-02-25T14:36:26.943Z,99228.11
2023-02-25T14:39:54.896Z,99228.40
2023-02-25T14:43:22.807Z,99231.98
2023-02-25T14:46:50.688Z,99239.02
2023-02-25T14:50:18.636Z,99243.35
2023-02-25T14:53:46.745Z,99250.94
2023-02-25T14:57:14.760Z,99250.98
2023-02-25T15:00:42.767Z,99248.76
2023-02-25T15:04:10.856Z,99259.20
2023-02-25T15:07:38.992Z,99272.39
2023-02-25T15:11:06.933Z,99268.60
2023-02-25T15:14:35.348Z,99273.53
2023-02-25T15:18:03.477Z,99279.59
2023-02-25T15:21:31.456Z,99288.09
2023-02-25T15:24:59.206Z,99273.42
2023-02-25T15:28:27.174Z,99247.83
2023-02-25T15:31:55.350Z,99252.94
2023-02-25T15:35:23.461Z,99276.95
2023-02-25T15:38:51.988Z,99265.83
2023-02-25T15:42:19.999Z,99258.95
2023-02-25T15:45:48.373Z,99264.77
2023-02-25T15:49:16.977Z,99267.39
2023-02-25T15:52:05.920Z,99270.51
2023-02-25T15:55:33.920Z,99290.52
2023-02-25T15:58:22.853Z,99292.90
2023-02-25T16:01:51.218Z,99285.10
2023-02-25T16:04:59.197Z,99288.68
2023-02-25T16:08:27.241Z,99267.57
2023-02-25T16:11:15.972Z,99267.13
2023-02-25T16:14:25.015Z,99257.27
2023-02-25T16:17:14.019Z,99258.34
2023-02-25T16:20:03.485Z,99271.47
2023-02-25T16:22:32.720Z,99281.34
2023-02-25T16:26:00.760Z,99293.51
2023-02-25T16:28:29.776Z,99301.56
2023-02-25T16:30:59.341Z,99322.97
2023-02-25T16:33:29.998Z,99366.59
2023-02-25T16:36:38.625Z,99388.83
2023-02-25T16:40:06.488Z,99371.46
2023-02-25T16:43:34.431Z,99363.23
2023-02-25T16:47:02.650Z,99362.02
2023-02-25T16:50:30.464Z,99373.55
2023-02-25T16:53:39.484Z,99368.37
2023-02-25T16:56:48.507Z,99389.66
2023-02-25T16:59:37.728Z,99396.95
2023-02-25T17:02:53.900Z,99388.11
2023-02-25T17:06:22.310Z,99385.59
2023-02-25T17:08:55.356Z,99385.40
2023-02-25T17:12:04.381Z,99378.25
2023-02-25T17:14:32.557Z,99360.61
2023-02-25T17:17:21.735Z,99341.89
2023-02-25T17:20:10.888Z,99334.77
2023-02-25T17:22:57.358Z,99328.66
2023-02-25T17:25:45.268Z,99323.29
2023-02-25T17:28:34.751Z,99318.77
2023-02-25T17:31:23.127Z,99299.44
2023-02-25T17:34:11.155Z,99292.05
2023-02-25T17:37:19.836Z,99303.65
2023-02-25T17:39:50.264Z,99309.23
2023-02-25T17:42:43.542Z,99316.56
2023-02-25T17:45:32.257Z,99318.83
2023-02-25T17:49:00.565Z,99315.48
2023-02-25T17:51:28.851Z,99315.47
2023-02-25T17:55:01.377Z,99309.66
2023-02-25T17:58:22.026Z,99308.27
2023-02-25T18:01:52.824Z,99303.39
2023-02-25T18:05:03.556Z,99295.11
2023-02-25T18:08:31.634Z,99285.89
2023-02-25T18:11:22.825Z,99272.35
2023-02-25T18:14:50.763Z,99251.36
2023-02-25T18:17:38.708Z,99252.90
2023-02-25T18:20:46.767Z,99258.83
2023-02-25T18:23:23.992Z,99259.92
2023-02-25T18:26:51.925Z,99263.86
2023-02-25T18:30:00.825Z,99259.35
2023-02-25T18:32:49.238Z,99257.20
2023-02-25T18:35:40.164Z,99249.00
2023-02-25T18:38:15.793Z,99248.59
2023-02-25T18:41:24.565Z,99252.44
2023-02-25T18:44:32.499Z,99264.38
2023-02-25T18:47:03.409Z,99260.50
2023-02-25T18:50:31.349Z,99246.35
2023-02-25T18:53:59.532Z,99229.21
2023-02-25T18:56:48.542Z,99229.16
2023-02-25T18:59:57.040Z,99236.12
2023-02-25T19:02:47.682Z,99252.86
2023-02-25T19:05:16.842Z,99253.48
2023-02-25T19:08:25.254Z,99248.16
2023-02-25T19:10:57.162Z,99237.19
2023-02-25T19:14:25.209Z,99246.97
2023-02-25T19:17:53.354Z,99261.66
2023-02-25T19:21:02.282Z,99262.95
2023-02-25T19:23:30.634Z,99268.50
2023-02-25T19:26:18.612Z,99279.77
2023-02-25T19:28:47.985Z,99278.84
2023-02-25T19:32:15.995Z,99280.88
2023-02-25T19:35:44.006Z,99289.46
2023-02-25T19:38:54.189Z,99287.71
2023-02-25T19:42:22.270Z,99285.04
2023-02-25T19:45:50.352Z,99294.24
2023-02-25T19:48:39.485Z,99298.68
2023-02-25T19:51:28.499Z,99299.02
2023-02-25T19:54:37.488Z,99311.23
2023-02-25T19:58:05.421Z,99346.89
2023-02-25T20:01:13.358Z,99354.13
2023-02-25T20:04:41.396Z,99348.80
2023-02-25T20:08:09.314Z,99347.09
2023-02-25T20:11:37.317Z,99358.35
2023-02-25T20:15:05.591Z,99366.51
2023-02-25T20:17:34.555Z,99366.94
2023-02-25T20:20:15.210Z,99360.90
2023-02-25T20:23:04.325Z,99366.66
2023-02-25T20:26:32.665Z,99370.19
2023-02-25T20:29:41.311Z,99373.96
2023-02-25T20:32:10.255Z,99371.79
2023-02-25T20:35:20.112Z,99376.28
2023-02-25T20:38:48.432Z,99375.58
2023-02-25T20:42:16.514Z,99369.04
2023-02-25T20:44:44.788Z,99367.80
2023-02-25T20:48:12.744Z,99367.98
2023-02-25T20:50:42.956Z,99368.72
2023-02-25T20:54:10.878Z,99370.27
2023-02-25T20:57:38.874Z,99369.82
2023-02-25T21:00:47.348Z,99364.15
2023-02-25T21:03:55.612Z,99367.69
2023-02-25T21:06:26.588Z,99364.70
2023-02-25T21:09:54.429Z,99366.55
2023-02-25T21:13:03.304Z,99366.62
2023-02-25T21:16:11.481Z,99361.95
2023-02-25T21:19:39.658Z,99350.91
2023-02-25T21:22:48.143Z,99350.86
2023-02-25T21:25:56.708Z,99346.52
2023-02-25T21:29:24.716Z,99350.08
2023-02-25T21:32:52.653Z,99345.96
2023-02-25T21:36:02.510Z,99341.66
2023-02-25T21:38:31.946Z,99342.83
2023-02-25T21:41:00.024Z,99338.31
2023-02-25T21:43:48.109Z,99335.14
2023-02-25T21:46:57.031Z,99330.57
2023-02-25T21:49:45.632Z,99325.73
2023-02-25T21:52:14.190Z,99328.15
2023-02-25T21:55:42.263Z,99322.91
2023-02-25T21:58:50.176Z,99313.88
2023-02-25T22:01:38.697Z,99319.48
2023-02-25T22:04:47.580Z,99316.92
2023-02-25T22:07:15.753Z,99317.89
2023-02-25T22:10:03.868Z,99311.54
2023-02-25T22:12:52.839Z,99308.64
2023-02-25T22:15:22.609Z,99307.26
2023-02-25T22:18:50.624Z,99305.89
2023-02-25T22:21:58.938Z,99300.86
2023-02-25T22:25:27.244Z,99298.42
2023-02-25T22:28:55.414Z,99295.40
2023-02-25T22:32:23.746Z,99295.56
2023-02-25T22:34:57.257Z,99296.97
2023-02-25T22:38:25.232Z,99301.92
2023-02-25T22:41:14.377Z,99307.55
2023-02-25T22:44:42.383Z,99304.11
2023-02-25T22:47:50.820Z,99300.43
2023-02-25T22:51:18.990Z,99298.67
2023-02-25T22:54:27.058Z,99301.23
2023-02-25T22:57:36.255Z,99303.14
2023-02-25T23:00:05.432Z,99307.72
2023-02-25T23:03:33.493Z,99321.38
2023-02-25T23:06:45.426Z,99332.05
2023-02-25T23:09:53.373Z,99330.91
2023-02-25T23:13:21.421Z,99332.72
2023-02-25T23:16:29.921Z,99339.63
2023-02-25T23:18:59.380Z,99348.30
2023-02-25T23:21:47.591Z,99357.56
2023-02-25T23:24:55.854Z,99376.77
2023-02-25T23:28:04.072Z,99380.67
2023-02-25T23:30:52.548Z,99371.02
2023-02-25T23:34:00.776Z,99361.00
2023-02-25T23:36:30.473Z,99368.23
2023-02-25T23:39:38.747Z,99364.08
2023-02-25T23:42:27.468Z,99360.82
2023-02-25T23:44:56.233Z,99360.25
2023-02-25T23:48:06.106Z,99348.49
2023-02-25T23:51:15.255Z,99352.52
2023-02-25T23:54:43.083Z,99346.50
2023-02-25T23:58:11.439Z,99344.91
